Latest Weather Observations for Gladstone Airport

IDQ60801

Issued at 6:02 am EST Monday 25 July 2016 (issued every 30 minutes, with the page automatically refreshed every 10 minutes)

About weather observations | Map of weather stations | Latest weather observations for QLD | Other Formats
Station Details ID: 039326 Name: GLADSTONE AIRPORT Lat: -23.87 Lon: 151.22 Height: 16.6 m
Data from the previous 72 hours. | See also: Recent months at Gladstone Airport
Date/Time
EST
Temp
°C
App
Temp
°C
Dew
Point
°C
Rel
Hum
%
Delta-T
°C
Wind Press
QNH
hPa
Press
MSL
hPa
Rain since
9am
mm
Dir  Spd
km/h
Gust
km/h
Spd
kts
Gust
kts
25/06:00am 17.4 17.9 16.6 95 0.5 SSW 9 15 5 8 1016.6 1016.6 0.0
25/05:30am 17.5 18.4 16.7 95 0.5 SSW 7 9 4 5 1016.0 1016.0 0.0
25/05:00am 17.4 18.3 16.6 95 0.5 SSW 7 9 4 5 1015.6 1015.6 0.0
25/04:30am 17.2 17.6 16.4 95 0.5 SSW 9 13 5 7 1015.4 1015.4 0.0
25/04:00am 17.1 17.4 16.1 94 0.6 SW 9 15 5 8 1015.3 1015.3 0.0
25/03:30am 17.1 17.4 16.0 93 0.6 SW 9 11 5 6 1015.4 1015.4 0.0
25/03:00am 18.1 19.2 17.0 93 0.7 SW 7 9 4 5 1015.1 1015.1 0.0
25/02:54am 18.1 19.2 17.0 93 0.7 SSW 7 9 4 5 1015.1 1015.1 0.0
25/02:30am 17.9 18.3 16.4 91 0.9 SSW 9 11 5 6 1015.2 1015.2 0.0
25/02:00am 17.6 18.1 16.5 93 0.7 SW 9 13 5 7 1015.2 1015.2 0.0
25/01:33am 17.1 17.7 15.8 92 0.8 SW 7 9 4 5 1015.4 1015.4 0.0
25/01:30am 17.1 17.7 15.8 92 0.8 SSW 7 9 4 5 1015.4 1015.4 0.0
25/01:00am 16.9 18.3 15.4 91 0.9 SSW 2 7 1 4 1015.5 1015.5 0.0
25/12:30am 16.9 17.5 15.2 90 1.0 SW 6 7 3 4 1015.6 1015.6 0.0
25/12:00am 16.9 18.6 15.1 89 1.0 CALM 0 0 0 0 1015.6 1015.6 0.0
 
Date/Time
EST
Temp
°C
App
Temp
°C
Dew
Point
°C
Rel
Hum
%
Delta-T
°C
Wind Press
QNH
hPa
Press
MSL
hPa
Rain since
9am
mm
Dir  Spd
km/h
Gust
km/h
Spd
kts
Gust
kts
24/11:30pm 17.3 19.1 15.5 89 1.1 CALM 0 0 0 0 1015.7 1015.7 0.0
24/11:00pm 17.5 19.3 15.5 88 1.2 CALM 0 0 0 0 1015.7 1015.7 0.0
24/10:30pm 17.8 19.3 15.8 88 1.2 SSW 2 7 1 4 1016.0 1016.0 0.0
24/10:00pm 18.1 20.1 15.9 87 1.3 CALM 0 0 0 0 1016.1 1016.1 0.0
24/09:30pm 18.2 19.7 15.8 86 1.4 SSW 2 6 1 3 1016.3 1016.3 0.0
24/09:00pm 18.3 18.9 15.9 86 1.4 SSW 7 9 4 5 1016.0 1016.0 0.0
24/08:30pm 18.8 19.6 15.9 83 1.7 NE 6 7 3 4 1015.9 1015.9 0.0
24/08:00pm 19.7 21.9 16.5 82 1.9 CALM 0 0 0 0 1015.5 1015.5 0.0
24/07:30pm 19.8 20.6 16.4 81 2.0 NNE 7 11 4 6 1015.3 1015.3 0.0
24/07:00pm 19.9 20.7 16.3 80 2.2 NNE 7 11 4 6 1014.8 1014.8 0.0
24/06:30pm 20.1 20.5 16.3 79 2.3 NE 9 11 5 6 1014.7 1014.7 0.0
24/06:00pm 20.2 20.6 16.2 78 2.4 NE 9 13 5 7 1014.2 1014.2 0.0
24/05:30pm 20.5 20.3 15.7 74 2.9 NE 11 15 6 8 1014.0 1014.0 0.0
24/05:00pm 21.1 20.5 15.6 71 3.3 NE 13 17 7 9 1013.9 1013.9 0.0
24/04:30pm 21.8 21.2 15.6 68 3.7 NE 13 19 7 10 1013.6 1013.6 0.0
24/04:00pm 22.5 21.7 15.1 63 4.4 NE 13 17 7 9 1013.4 1013.4 0.0
24/03:30pm 22.8 21.6 14.1 58 5.1 ENE 13 19 7 10 1013.4 1013.4 0.0
24/03:00pm 23.2 21.8 13.4 54 5.7 ENE 13 17 7 9 1013.5 1013.5 0.0
24/02:30pm 23.3 21.7 11.7 48 6.5 ENE 11 17 6 9 1013.6 1013.6 0.0
24/02:00pm 24.3 22.2 12.3 47 6.9 NE 15 20 8 11 1014.0 1014.0 0.0
24/01:30pm 24.2 22.4 12.2 47 6.8 NE 13 17 7 9 1014.4 1014.4 0.0
24/01:00pm 24.0 21.9 11.3 45 7.1 NE 13 17 7 9 1014.9 1014.9 0.0
24/12:30pm 23.4 21.2 10.8 45 7.0 ENE 13 20 7 11 1015.5 1015.5 0.0
24/12:00pm 23.9 21.4 10.9 44 7.2 ENE 15 20 8 11 1016.0 1016.0 0.0
24/11:30am 24.5 21.9 10.8 42 7.6 E 15 20 8 11 1016.2 1016.2 0.0
24/11:00am 23.7 21.7 12.7 50 6.3 E 15 26 8 14 1016.7 1016.7 0.0
24/10:30am 23.3 21.6 12.3 50 6.3 E 13 19 7 10 1017.0 1017.0 0.0
24/10:00am 22.4 20.8 12.9 55 5.4 E 13 19 7 10 1017.0 1017.0 0.0
24/09:31am 21.7 20.5 13.9 61 4.5 ESE 13 19 7 10 1017.1 1017.1 0.0
24/09:30am 21.6 20.4 14.0 62 4.4 ESE 13 19 7 10 1017.1 1017.1 0.0
24/09:00am 20.2 21.4 17.4 84 1.7 ESE 7 11 4 6 1017.0 1017.0 0.0
24/08:30am 19.9 21.0 17.9 88 1.2 ESE 9 13 5 7 1016.6 1016.6 0.0
24/08:00am 19.7 21.9 17.5 87 1.3 S 2 7 1 4 1016.3 1016.3 0.0
24/07:58am 19.5 21.6 17.1 86 1.5 S 2 7 1 4 1016.3 1016.3 0.0
24/07:30am 18.7 19.9 16.9 89 1.1 S 6 7 3 4 1016.0 1016.0 0.0
24/07:00am 17.8 18.9 16.5 92 0.8 SSW 6 9 3 5 1015.6 1015.6 0.0
24/06:30am 18.2 18.5 16.9 92 0.8 SW 11 17 6 9 1015.1 1015.1 0.0
24/06:00am 17.8 19.5 16.3 91 0.9 SW 2 6 1 3 1014.7 1014.7 0.0
24/05:30am 18.3 19.4 17.0 92 0.8 SW 7 9 4 5 1014.5 1014.5 0.0
24/05:00am 17.8 18.6 16.3 91 0.9 WSW 7 9 4 5 1013.7 1013.7 0.0
24/04:30am 17.8 19.9 16.3 91 0.9 CALM 0 0 0 0 1013.5 1013.5 0.0
24/04:00am 18.0 20.2 16.5 91 0.9 CALM 0 0 0 0 1013.3 1013.3 0.0
24/03:30am 17.9 20.0 16.2 90 1.0 CALM 0 0 0 0 1013.4 1013.4 0.0
24/03:00am 18.5 21.0 17.3 93 0.7 CALM 0 0 0 0 1013.3 1013.3 0.0
24/02:30am 18.3 20.7 17.0 92 0.8 CALM 0 0 0 0 1013.1 1013.1 0.0
24/02:00am 18.4 20.8 16.9 91 0.9 CALM 0 0 0 0 1013.0 1013.0 0.0
24/01:30am 18.5 20.9 17.0 91 0.9 CALM 0 0 0 0 1013.2 1013.2 0.0
24/01:00am 18.7 21.1 17.0 90 1.0 CALM 0 0 0 0 1013.3 1013.3 0.0
24/12:30am 19.1 21.7 17.4 90 1.0 CALM 0 0 0 0 1013.3 1013.3 0.0
24/12:00am 19.2 21.7 17.3 89 1.2 CALM 0 0 0 0 1013.5 1013.5 0.0
 
Date/Time
EST
Temp
°C
App
Temp
°C
Dew
Point
°C
Rel
Hum
%
Delta-T
°C
Wind Press
QNH
hPa
Press
MSL
hPa
Rain since
9am
mm
Dir  Spd
km/h
Gust
km/h
Spd
kts
Gust
kts
23/11:30pm 19.3 21.1 17.4 89 1.2 SSW 4 6 2 3 1013.5 1013.5 0.0
23/11:00pm 19.7 22.3 17.5 87 1.3 CALM 0 0 0 0 1013.6 1013.6 0.0
23/10:30pm 20.6 22.8 18.4 87 1.4 NW 4 7 2 4 1013.6 1013.6 0.0
23/10:00pm 21.0 22.7 18.6 86 1.5 NW 7 9 4 5 1013.5 1013.5 0.0
23/09:30pm 21.3 23.3 18.7 85 1.6 NW 6 7 3 4 1013.6 1013.6 0.0
23/09:00pm 21.2 23.3 18.2 83 1.9 NW 4 9 2 5 1013.5 1013.5 0.0
23/08:30pm 21.7 23.0 18.5 82 2.0 NNW 9 15 5 8 1013.1 1013.1 0.0
23/08:00pm 21.5 23.2 18.5 83 1.9 N 7 9 4 5 1012.9 1012.9 0.0
23/07:30pm 21.8 23.2 18.6 82 2.0 N 9 13 5 7 1012.6 1012.6 0.0
23/07:00pm 22.1 23.5 18.7 81 2.1 N 9 11 5 6 1012.2 1012.2 0.0
23/06:30pm 22.7 23.7 18.7 78 2.5 NNW 11 13 6 7 1012.0 1012.0 0.0
23/06:00pm 23.4 24.4 18.7 75 3.0 NNW 11 15 6 8 1011.8 1011.8 0.0
23/05:30pm 24.0 24.6 18.6 72 3.4 N 13 19 7 10 1011.7 1011.7 0.0
23/05:00pm 24.7 25.1 18.9 70 3.7 N 15 20 8 11 1011.6 1011.6 0.0
23/04:30pm 25.3 24.6 18.7 67 4.2 N 20 26 11 14 1011.5 1011.5 0.0
23/04:00pm 25.8 24.9 18.2 63 4.8 N 20 28 11 15 1011.3 1011.3 0.0
23/03:30pm 26.0 25.1 18.2 62 4.9 N 20 26 11 14 1011.3 1011.3 0.0
23/03:00pm 25.9 25.0 18.3 63 4.8 N 20 30 11 16 1011.4 1011.4 0.0
23/02:30pm 26.2 25.3 18.3 61 5.0 NNW 20 28 11 15 1011.5 1011.5 0.0
23/02:00pm 25.3 23.7 17.5 62 4.9 N 22 30 12 16 1011.8 1011.8 0.0
23/01:30pm 25.3 23.2 17.2 61 5.0 N 24 33 13 18 1012.0 1012.0 0.0
23/01:00pm 25.1 23.6 17.6 63 4.7 NNW 22 28 12 15 1012.3 1012.3 0.0
23/12:30pm 24.7 23.0 17.2 63 4.7 N 22 28 12 15 1012.7 1012.7 0.0
23/12:00pm 24.8 23.8 17.5 64 4.6 NNW 19 26 10 14 1013.3 1013.3 0.0
23/11:30am 24.6 23.5 17.8 66 4.3 NNW 20 26 11 14 1013.9 1013.9 0.0
23/11:00am 23.5 22.9 17.5 69 3.7 NNW 17 20 9 11 1014.3 1014.3 0.0
23/10:30am 22.6 22.4 17.5 73 3.2 NNW 15 19 8 10 1014.8 1014.8 0.0
23/10:00am 21.9 22.0 17.5 76 2.7 NNW 13 19 7 10 1015.1 1015.1 0.0
23/09:30am 21.5 22.1 17.7 79 2.3 NNW 11 17 6 9 1015.4 1015.4 0.0
23/09:00am 20.7 21.6 17.5 82 2.0 NNW 9 13 5 7 1015.5 1015.5 0.0
23/08:30am 19.8 20.9 17.0 84 1.7 NW 7 9 4 5 1015.5 1015.5 0.0
23/08:00am 18.6 19.9 16.2 86 1.4 NW 4 7 2 4 1015.3 1015.3 0.0
23/07:30am 17.7 19.9 16.4 92 0.8 CALM 0 0 0 0 1015.2 1015.2 0.0
23/07:00am 15.9 17.3 14.4 91 0.9 CALM 0 0 0 0 1014.9 1014.9 0.0
23/06:30am 15.8 17.2 14.5 92 0.7 CALM 0 0 0 0 1014.6 1014.6 0.0
23/06:00am 15.9 17.4 14.6 92 0.7 CALM 0 0 0 0 1014.5 1014.5 0.0
23/05:30am 16.2 17.8 14.9 92 0.7 CALM 0 6 0 3 1014.1 1014.1 0.0
23/05:00am 16.4 18.1 15.1 92 0.8 CALM 0 2 0 1 1013.9 1013.9 0.0
23/04:30am 16.5 17.5 15.4 93 0.6 SW 4 9 2 5 1013.7 1013.7 0.0
23/04:00am 16.6 17.1 15.5 93 0.6 SW 7 9 4 5 1013.6 1013.6 0.0
23/03:30am 16.8 17.5 15.7 93 0.6 SW 6 9 3 5 1013.5 1013.5 0.0
23/03:00am 16.7 18.4 15.2 91 0.9 CALM 0 0 0 0 1013.6 1013.6 0.0
23/02:30am 17.0 18.7 15.3 90 1.0 CALM 0 0 0 0 1013.6 1013.6 0.0
23/02:00am 17.3 18.0 15.6 90 1.0 SW 6 7 3 4 1013.9 1013.9 0.0
23/01:30am 17.4 18.5 15.6 89 1.1 SW 4 7 2 4 1014.1 1014.1 0.0
23/01:00am 17.9 18.8 16.1 89 1.1 SW 6 7 3 4 1014.2 1014.2 0.0
23/12:30am 18.9 20.2 17.0 89 1.1 WNW 6 7 3 4 1014.4 1014.4 0.0
23/12:00am 19.2 20.5 17.2 88 1.2 NNW 6 7 3 4 1014.5 1014.5 0.0
 
Date/Time
EST
Temp
°C
App
Temp
°C
Dew
Point
°C
Rel
Hum
%
Delta-T
°C
Wind Press
QNH
hPa
Press
MSL
hPa
Rain since
9am
mm
Dir  Spd
km/h
Gust
km/h
Spd
kts
Gust
kts
22/11:30pm 19.4 20.7 17.2 87 1.3 NW 6 7 3 4 1014.6 1014.6 0.0
22/11:00pm 19.8 20.8 17.8 88 1.2 NW 9 13 5 7 1014.7 1014.7 0.0
22/10:30pm 19.1 21.2 17.1 88 1.2 NW 2 7 1 4 1014.8 1014.8 0.0
22/10:00pm 19.0 20.4 16.4 85 1.6 WNW 4 6 2 3 1015.1 1015.1 0.0
22/09:30pm 19.5 20.5 16.9 85 1.6 NW 7 9 4 5 1015.1 1015.1 0.0
22/09:00pm 19.6 20.2 16.8 84 1.7 NNW 9 11 5 6 1015.2 1015.2 0.0
22/08:30pm 19.9 20.8 16.7 82 1.9 N 7 9 4 5 1015.1 1015.1 0.0
22/08:00pm 20.2 20.7 16.6 80 2.2 NNW 9 11 5 6 1015.1 1015.1 0.0
22/07:30pm 20.7 20.6 16.1 75 2.8 N 11 15 6 8 1015.0 1015.0 0.0
22/07:00pm 21.1 20.6 15.0 68 3.6 N 11 15 6 8 1014.8 1014.8 0.0
22/06:30pm 21.6 21.5 15.0 66 3.9 N 9 15 5 8 1014.6 1014.6 0.0
22/06:00pm 22.1 22.8 16.1 69 3.6 N 7 11 4 6 1014.4 1014.4 0.0
22/05:30pm 22.5 22.9 16.3 68 3.8 NNE 9 13 5 7 1014.1 1014.1 0.0
22/05:00pm 23.4 23.0 16.2 64 4.4 NNE 13 20 7 11 1013.9 1013.9 0.0
22/04:30pm 24.4 23.7 16.4 61 4.9 NE 15 20 8 11 1013.6 1013.6 0.0
22/04:00pm 25.0 24.6 17.2 62 4.8 NE 15 20 8 11 1013.6 1013.6 0.0
22/03:30pm 24.9 24.4 16.9 61 4.9 NE 15 19 8 10 1013.6 1013.6 0.0
22/03:00pm 25.1 25.2 18.3 66 4.3 NE 15 20 8 11 1013.7 1013.7 0.0
22/02:30pm 24.9 24.7 17.6 64 4.6 NE 15 19 8 10 1013.9 1013.9 0.0
22/02:00pm 25.5 25.2 17.4 61 5.1 NNE 15 19 8 10 1014.1 1014.1 0.0
22/01:30pm 25.5 24.7 16.1 56 5.8 NNE 15 20 8 11 1014.4 1014.4 0.0
22/01:00pm 25.6 26.2 16.7 58 5.5 NNW 9 15 5 8 1014.8 1014.8 0.0
22/12:30pm 25.7 26.5 17.4 60 5.2 N 9 13 5 7 1015.2 1015.2 0.0
22/12:00pm 25.2 25.3 16.6 59 5.3 NW 11 15 6 8 1015.7 1015.7 0.0
22/11:30am 24.9 25.8 17.6 64 4.6 N 9 15 5 8 1016.4 1016.4 0.0
22/11:00am 24.4 26.0 16.9 63 4.6 N 4 9 2 5 1016.9 1016.9 0.0
22/10:30am 23.9 25.3 17.4 67 4.0 NW 6 9 3 5 1017.3 1017.3 0.0
22/10:00am 22.4 23.7 17.1 72 3.3 S 6 11 3 6 1017.7 1017.7 0.0
22/09:30am 21.1 21.7 16.7 76 2.7 SW 9 13 5 7 1017.8 1017.8 0.0
22/09:00am 19.8 20.6 16.4 81 2.0 SSW 7 11 4 6 1017.7 1017.7 0.0
22/08:30am 18.8 19.5 16.2 85 1.6 SSW 7 11 4 6 1017.5 1017.5 0.0
22/08:00am 17.5 17.9 15.3 87 1.3 SW 7 11 4 6 1017.4 1017.4 0.0
22/07:30am 16.6 16.9 15.0 90 0.9 SW 7 11 4 6 1017.3 1017.3 0.0
22/07:00am 16.0 16.1 14.5 91 0.9 SSW 7 11 4 6 1017.2 1017.2 0.0
22/06:30am 15.9 16.0 14.4 91 0.9 SW 7 11 4 6 1017.2 1017.2 0.0

Other Formats:

Comma delimited format used in spreadsheet applications
http://www.bom.gov.au/fwo/IDQ60801/IDQ60801.94381.axf

JavaScript Object Notation format (JSON) in row-major order
http://www.bom.gov.au/fwo/IDQ60801/IDQ60801.94381.json